createdAt,value
2023-08-22T00:02:20.850Z,18.30
2023-08-22T00:04:47.918Z,18.30
2023-08-22T00:07:14.820Z,18.30
2023-08-22T00:09:41.476Z,18.30
2023-08-22T00:12:08.113Z,18.30
2023-08-22T00:14:34.711Z,18.20
2023-08-22T00:17:01.320Z,18.20
2023-08-22T00:19:30.313Z,18.20
2023-08-22T00:21:57.464Z,18.10
2023-08-22T00:24:24.777Z,18.10
2023-08-22T00:26:51.415Z,18.10
2023-08-22T00:29:18.060Z,18.00
2023-08-22T00:31:44.652Z,18.00
2023-08-22T00:34:11.336Z,17.90
2023-08-22T00:36:37.912Z,17.90
2023-08-22T00:39:04.555Z,17.90
2023-08-22T00:41:34.055Z,17.90
2023-08-22T00:44:00.594Z,17.90
2023-08-22T00:46:27.242Z,17.90
2023-08-22T00:48:53.947Z,17.80
2023-08-22T00:51:20.601Z,17.80
2023-08-22T00:53:47.204Z,17.80
2023-08-22T00:56:13.808Z,17.80
2023-08-22T00:58:40.371Z,17.80
2023-08-22T01:01:07.019Z,17.70
2023-08-22T01:03:33.746Z,17.70
2023-08-22T01:06:00.383Z,17.70
2023-08-22T01:08:27.238Z,17.70
2023-08-22T01:10:53.903Z,17.70
2023-08-22T01:13:20.499Z,17.60
2023-08-22T01:15:47.093Z,17.60
2023-08-22T01:18:16.681Z,17.60
2023-08-22T01:20:43.275Z,17.60
2023-08-22T01:23:09.905Z,17.50
2023-08-22T01:25:36.516Z,17.50
2023-08-22T01:28:04.545Z,17.50
2023-08-22T01:30:31.758Z,17.40
2023-08-22T01:32:58.438Z,17.40
2023-08-22T01:35:25.328Z,17.40
2023-08-22T01:37:52.597Z,17.40
2023-08-22T01:40:19.271Z,17.40
2023-08-22T01:42:45.880Z,17.40
2023-08-22T01:45:12.521Z,17.40
2023-08-22T01:47:39.404Z,17.30
2023-08-22T01:50:06.293Z,17.30
2023-08-22T01:52:32.934Z,17.30
2023-08-22T01:54:59.582Z,17.20
2023-08-22T01:57:26.172Z,17.20
2023-08-22T01:59:52.848Z,17.20
2023-08-22T02:02:19.661Z,17.20
2023-08-22T02:04:46.224Z,17.20
2023-08-22T02:07:12.899Z,17.20
2023-08-22T02:09:39.498Z,17.20
2023-08-22T02:12:06.267Z,17.20
2023-08-22T02:14:33.206Z,17.20
2023-08-22T02:16:59.851Z,17.20
2023-08-22T02:19:26.456Z,17.20
2023-08-22T02:21:53.069Z,17.20
2023-08-22T02:24:19.671Z,17.10
2023-08-22T02:26:48.120Z,17.10
2023-08-22T02:29:14.793Z,17.10
2023-08-22T02:31:41.388Z,17.10
2023-08-22T02:34:08.045Z,17.10
2023-08-22T02:36:34.842Z,17.10
2023-08-22T02:39:01.508Z,17.00
2023-08-22T02:41:28.301Z,17.00
2023-08-22T02:43:55.013Z,17.00
2023-08-22T02:46:21.626Z,17.00
2023-08-22T02:48:48.262Z,17.00
2023-08-22T02:51:15.046Z,17.00
2023-08-22T02:53:41.706Z,17.00
2023-08-22T02:56:08.344Z,16.90
2023-08-22T02:58:35.390Z,17.00
2023-08-22T03:01:02.020Z,16.90
2023-08-22T03:03:29.491Z,16.90
2023-08-22T03:05:56.156Z,16.90
2023-08-22T03:08:22.993Z,16.90
2023-08-22T03:10:49.829Z,16.90
2023-08-22T03:13:16.627Z,16.90
2023-08-22T03:15:43.512Z,16.90
2023-08-22T03:18:10.367Z,16.90
2023-08-22T03:20:37.001Z,16.90
2023-08-22T03:23:05.892Z,17.00
2023-08-22T03:25:32.480Z,16.90
2023-08-22T03:27:59.171Z,16.90
2023-08-22T03:30:25.763Z,17.00
2023-08-22T03:32:52.398Z,17.00
2023-08-22T03:35:19.048Z,16.90
2023-08-22T03:37:45.720Z,16.90
2023-08-22T03:40:12.345Z,17.00
2023-08-22T03:42:38.940Z,16.90
2023-08-22T03:45:05.559Z,16.90
2023-08-22T03:47:32.181Z,16.90
2023-08-22T03:49:58.865Z,16.90
2023-08-22T03:52:25.451Z,16.90
2023-08-22T03:54:52.097Z,16.90
2023-08-22T03:57:18.701Z,16.90
2023-08-22T03:59:45.336Z,16.90
2023-08-22T04:02:12.394Z,16.90
2023-08-22T04:04:39.062Z,16.90
2023-08-22T04:07:05.907Z,16.90
2023-08-22T04:09:32.539Z,16.80
2023-08-22T04:11:59.087Z,16.80
2023-08-22T04:14:25.695Z,16.80
2023-08-22T04:16:52.306Z,16.80
2023-08-22T04:19:19.004Z,16.80
2023-08-22T04:21:45.651Z,16.80
2023-08-22T04:24:12.703Z,16.80
2023-08-22T04:26:40.144Z,16.80
2023-08-22T04:29:07.095Z,16.80
2023-08-22T04:31:33.771Z,16.80
2023-08-22T04:34:00.635Z,16.80
2023-08-22T04:36:27.387Z,16.90
2023-08-22T04:38:54.145Z,16.90
2023-08-22T04:41:20.756Z,16.90
2023-08-22T04:43:47.381Z,16.90
2023-08-22T04:46:16.667Z,17.00
2023-08-22T04:48:43.512Z,17.00
2023-08-22T04:51:10.258Z,17.00
2023-08-22T04:53:37.036Z,17.00
2023-08-22T04:56:03.689Z,17.00
2023-08-22T04:58:30.304Z,17.10
2023-08-22T05:00:57.002Z,17.10
2023-08-22T05:03:24.133Z,17.10
2023-08-22T05:05:51.175Z,17.20
2023-08-22T05:08:17.826Z,17.20
2023-08-22T05:10:44.538Z,17.20
2023-08-22T05:13:11.155Z,17.30
2023-08-22T05:15:37.798Z,17.30
2023-08-22T05:18:04.463Z,17.30
2023-08-22T05:20:31.192Z,17.40
2023-08-22T05:22:57.840Z,17.40
2023-08-22T05:25:24.452Z,17.40
2023-08-22T05:27:51.273Z,17.40
2023-08-22T05:30:18.501Z,17.40
2023-08-22T05:32:45.217Z,17.40
2023-08-22T05:35:11.954Z,17.40
2023-08-22T05:37:38.857Z,17.40
2023-08-22T05:40:07.314Z,17.40
2023-08-22T05:42:34.115Z,17.50
2023-08-22T05:45:00.755Z,17.50
2023-08-22T05:47:28.000Z,17.60
2023-08-22T05:49:54.643Z,17.70
2023-08-22T05:52:21.254Z,17.70
2023-08-22T05:54:47.877Z,17.80
2023-08-22T05:57:14.585Z,17.90
2023-08-22T05:59:41.263Z,17.90
2023-08-22T06:02:08.564Z,18.00
2023-08-22T06:04:35.293Z,18.10
2023-08-22T06:07:01.921Z,18.10
2023-08-22T06:09:28.534Z,18.20
2023-08-22T06:11:55.556Z,18.30
2023-08-22T06:14:22.176Z,18.30
2023-08-22T06:16:48.812Z,18.40
2023-08-22T06:19:15.412Z,18.50
2023-08-22T06:21:42.160Z,18.60
2023-08-22T06:24:08.828Z,18.60
2023-08-22T06:26:35.428Z,18.60
2023-08-22T06:29:02.069Z,18.70
2023-08-22T06:31:28.771Z,18.60
2023-08-22T06:33:55.579Z,18.60
2023-08-22T06:36:22.184Z,18.60
2023-08-22T06:38:48.793Z,18.60
2023-08-22T06:41:17.608Z,18.60
2023-08-22T06:43:44.294Z,18.60
2023-08-22T06:46:10.995Z,18.70
2023-08-22T06:48:42.328Z,18.70
2023-08-22T06:51:09.428Z,18.70
2023-08-22T06:53:36.198Z,18.70
2023-08-22T06:56:03.021Z,18.70
2023-08-22T06:58:29.737Z,18.80
2023-08-22T07:00:56.415Z,18.80
2023-08-22T07:03:23.161Z,18.90
2023-08-22T07:05:49.934Z,19.00
2023-08-22T07:08:16.552Z,19.00
2023-08-22T07:10:43.100Z,19.10
2023-08-22T07:13:09.638Z,19.20
2023-08-22T07:15:36.135Z,19.30
2023-08-22T07:18:02.743Z,19.40
2023-08-22T07:20:29.427Z,19.50
2023-08-22T07:22:55.973Z,19.60
2023-08-22T07:25:22.515Z,19.60
2023-08-22T07:27:49.075Z,19.70
2023-08-22T07:30:15.588Z,19.70
2023-08-22T07:32:42.400Z,19.90
2023-08-22T07:35:09.212Z,20.00
2023-08-22T07:37:35.816Z,20.10
2023-08-22T07:40:02.501Z,20.20
2023-08-22T07:42:29.030Z,20.40
2023-08-22T07:44:55.564Z,20.40
2023-08-22T07:47:22.078Z,20.50
2023-08-22T07:49:48.670Z,20.60
2023-08-22T07:52:15.189Z,20.50
2023-08-22T07:54:41.740Z,20.60
2023-08-22T07:57:18.493Z,20.60
2023-08-22T07:59:46.071Z,20.60
2023-08-22T08:02:12.627Z,20.60
2023-08-22T08:04:39.178Z,20.60
2023-08-22T08:07:05.829Z,20.60
2023-08-22T08:09:35.924Z,20.50
2023-08-22T08:12:03.192Z,20.50
2023-08-22T08:14:29.747Z,20.60
2023-08-22T08:16:56.294Z,20.70
2023-08-22T08:19:25.801Z,20.70
2023-08-22T08:21:53.801Z,20.70
2023-08-22T08:24:20.358Z,20.80
2023-08-22T08:26:46.914Z,20.90
2023-08-22T08:29:13.511Z,20.90
2023-08-22T08:31:40.043Z,21.00
2023-08-22T08:34:06.910Z,21.10
2023-08-22T08:36:33.601Z,21.20
2023-08-22T08:39:00.177Z,21.40
2023-08-22T08:41:26.718Z,21.30
2023-08-22T08:43:53.242Z,21.40
2023-08-22T08:46:19.938Z,21.40
2023-08-22T08:48:46.537Z,21.50
2023-08-22T08:51:13.108Z,21.60
2023-08-22T08:53:39.623Z,21.70
2023-08-22T08:56:10.954Z,21.80
2023-08-22T08:58:37.670Z,21.90
2023-08-22T09:01:04.292Z,22.00
2023-08-22T09:03:30.829Z,22.20
2023-08-22T09:05:57.358Z,22.20
2023-08-22T09:08:24.361Z,22.30
2023-08-22T09:10:51.954Z,22.40
2023-08-22T09:13:18.482Z,22.60
2023-08-22T09:15:45.049Z,22.70
2023-08-22T09:18:11.617Z,22.80
2023-08-22T09:20:38.280Z,22.90
2023-08-22T09:23:04.801Z,22.90
2023-08-22T09:25:31.304Z,22.90
2023-08-22T09:27:58.285Z,22.90
2023-08-22T09:30:24.817Z,22.90
2023-08-22T09:32:51.516Z,23.00
2023-08-22T09:35:18.064Z,23.10
2023-08-22T09:37:44.842Z,23.30
2023-08-22T09:40:11.797Z,23.50
2023-08-22T09:42:38.326Z,23.60
2023-08-22T09:45:04.841Z,23.70
2023-08-22T09:47:31.591Z,23.80
2023-08-22T09:49:58.325Z,24.00
2023-08-22T09:52:24.938Z,24.10
2023-08-22T09:54:51.651Z,24.00
2023-08-22T09:57:18.417Z,23.90
2023-08-22T09:59:45.503Z,24.00
2023-08-22T10:02:12.283Z,24.10
2023-08-22T10:04:39.078Z,24.10
2023-08-22T10:07:05.770Z,24.20
2023-08-22T10:09:32.628Z,24.30
2023-08-22T10:11:59.371Z,24.40
2023-08-22T10:14:26.042Z,24.40
2023-08-22T10:16:52.701Z,24.50
2023-08-22T10:19:19.686Z,24.60
2023-08-22T10:21:46.409Z,24.60
2023-08-22T10:24:12.997Z,24.50
2023-08-22T10:26:53.426Z,24.40
2023-08-22T10:29:26.284Z,24.40
2023-08-22T10:31:52.845Z,24.40
2023-08-22T10:34:19.460Z,24.50
2023-08-22T10:36:46.070Z,24.50
2023-08-22T10:39:12.616Z,24.50
2023-08-22T10:41:39.201Z,24.50
2023-08-22T10:44:05.842Z,24.50
2023-08-22T10:46:32.504Z,24.50
2023-08-22T10:48:59.116Z,24.50
2023-08-22T10:51:25.792Z,24.60
2023-08-22T10:53:54.082Z,24.70
2023-08-22T10:56:20.786Z,24.80
2023-08-22T10:58:47.424Z,24.90
2023-08-22T11:01:14.218Z,24.80
2023-08-22T11:03:40.882Z,24.80
2023-08-22T11:06:07.619Z,24.70
2023-08-22T11:08:34.282Z,24.70
2023-08-22T11:11:00.877Z,24.70
2023-08-22T11:13:27.522Z,24.70
2023-08-22T11:15:54.135Z,24.90
2023-08-22T11:18:20.793Z,24.90
2023-08-22T11:20:47.477Z,25.00
2023-08-22T11:23:14.059Z,24.90
2023-08-22T11:25:40.802Z,24.90
2023-08-22T11:28:07.503Z,24.90
2023-08-22T11:30:34.167Z,25.00
2023-08-22T11:33:00.858Z,25.00
2023-08-22T11:35:27.600Z,25.00
2023-08-22T11:37:54.422Z,25.00
2023-08-22T11:40:21.621Z,25.00
2023-08-22T11:42:48.509Z,25.00
2023-08-22T11:45:16.114Z,24.90
2023-08-22T11:47:43.164Z,24.90
2023-08-22T11:50:09.973Z,24.90
2023-08-22T11:52:37.738Z,24.90
2023-08-22T11:55:04.847Z,24.90
2023-08-22T11:57:31.557Z,24.90
2023-08-22T11:59:58.134Z,24.90
2023-08-22T12:02:24.869Z,24.90
2023-08-22T12:04:55.828Z,24.90
2023-08-22T12:07:22.431Z,24.90
2023-08-22T12:09:49.030Z,24.80
2023-08-22T12:12:15.784Z,24.80
2023-08-22T12:14:42.441Z,24.90
2023-08-22T12:17:09.221Z,25.00
2023-08-22T12:19:35.827Z,25.30
2023-08-22T12:22:02.525Z,25.50
2023-08-22T12:24:29.220Z,25.50
2023-08-22T12:26:55.800Z,25.50
2023-08-22T12:29:22.393Z,25.50
2023-08-22T12:31:49.002Z,25.50
2023-08-22T12:34:15.647Z,25.60
2023-08-22T12:36:42.235Z,25.60
2023-08-22T12:39:11.706Z,25.50
2023-08-22T12:41:38.423Z,25.60
2023-08-22T12:44:05.323Z,25.60
2023-08-22T12:46:31.945Z,25.60
2023-08-22T12:48:58.766Z,25.60
2023-08-22T12:51:25.398Z,25.70
2023-08-22T12:53:52.482Z,25.80
2023-08-22T12:56:19.459Z,25.80
2023-08-22T12:58:46.069Z,25.80
2023-08-22T13:01:14.592Z,25.70
2023-08-22T13:03:41.420Z,25.70
2023-08-22T19:09:01.601Z,20.10
2023-08-22T19:11:28.236Z,20.00
2023-08-22T19:13:55.397Z,20.00
2023-08-22T19:16:22.000Z,20.00
2023-08-22T19:18:48.721Z,19.90
2023-08-22T19:21:15.376Z,19.90
2023-08-22T19:23:41.967Z,19.90
2023-08-22T19:26:08.764Z,19.80
2023-08-22T19:28:36.319Z,19.70
2023-08-22T19:31:03.079Z,19.70
2023-08-22T19:33:29.983Z,19.70
2023-08-22T19:35:56.770Z,19.60
2023-08-22T19:38:23.367Z,19.60
2023-08-22T19:40:50.011Z,19.60
2023-08-22T19:43:16.650Z,19.60
2023-08-22T19:45:43.338Z,19.50
2023-08-22T19:48:10.093Z,19.50
2023-08-22T19:50:36.721Z,19.50
2023-08-22T19:53:03.435Z,19.50
2023-08-22T19:55:30.044Z,19.40
2023-08-22T19:57:56.632Z,19.40
2023-08-22T20:00:23.333Z,19.40
2023-08-22T20:02:51.036Z,19.40
2023-08-22T20:05:17.772Z,19.30
2023-08-22T20:07:44.640Z,19.30
2023-08-22T20:10:11.790Z,19.30
2023-08-22T20:12:38.454Z,19.30
2023-08-22T20:15:05.077Z,19.30
2023-08-22T20:17:31.703Z,19.30
2023-08-22T20:19:58.335Z,19.30
2023-08-22T20:22:25.100Z,19.30
2023-08-22T20:24:51.758Z,19.20
2023-08-22T20:27:18.370Z,19.20
2023-08-22T20:29:45.180Z,19.10
2023-08-22T20:32:11.807Z,19.10
2023-08-22T20:34:38.433Z,19.10
2023-08-22T20:37:05.025Z,19.10
2023-08-22T20:39:31.651Z,19.00
2023-08-22T20:41:58.303Z,19.00
2023-08-22T20:44:28.080Z,18.90
2023-08-22T20:46:54.688Z,18.90
2023-08-22T20:49:21.292Z,18.90
2023-08-22T20:51:47.969Z,18.90
2023-08-22T20:54:14.577Z,18.80
2023-08-22T20:56:41.335Z,18.70
2023-08-22T20:59:07.994Z,18.70
2023-08-22T21:01:34.694Z,18.70
2023-08-22T21:04:01.484Z,18.60
2023-08-22T21:06:28.238Z,18.60
2023-08-22T21:08:55.043Z,18.60
2023-08-22T21:11:21.752Z,18.50
2023-08-22T21:13:48.328Z,18.50
2023-08-22T21:16:15.059Z,18.50
2023-08-22T21:18:41.843Z,18.40
2023-08-22T21:21:08.618Z,18.40
2023-08-22T21:23:37.051Z,18.30
2023-08-22T21:26:03.692Z,18.30
2023-08-22T21:28:30.322Z,18.30
2023-08-22T21:30:56.954Z,18.20
2023-08-22T21:33:23.538Z,18.20
2023-08-22T21:35:50.185Z,18.20
2023-08-22T21:38:16.874Z,18.20
2023-08-22T21:40:43.512Z,18.20
2023-08-22T21:43:10.152Z,18.20
2023-08-22T21:45:36.787Z,18.20
2023-08-22T21:48:03.684Z,18.20
2023-08-22T21:50:30.496Z,18.10
2023-08-22T21:52:57.075Z,18.10
2023-08-22T21:55:23.707Z,18.10
2023-08-22T21:57:50.480Z,18.10
2023-08-22T22:00:17.135Z,18.00
2023-08-22T22:02:43.981Z,18.00
2023-08-22T22:05:10.634Z,18.00
2023-08-22T22:07:37.388Z,17.90
2023-08-22T22:10:04.213Z,17.90
2023-08-22T22:12:31.066Z,17.90
2023-08-22T22:14:57.740Z,17.90
2023-08-22T22:17:24.404Z,17.80
2023-08-22T22:19:51.150Z,17.80
2023-08-22T22:22:17.774Z,17.80
2023-08-22T22:24:44.403Z,17.70
2023-08-22T22:27:11.093Z,17.70
2023-08-22T22:29:37.745Z,17.70
2023-08-22T22:32:04.378Z,17.70
2023-08-22T22:34:31.019Z,17.60
2023-08-22T22:36:57.756Z,17.50
2023-08-22T22:39:24.440Z,17.50
2023-08-22T22:41:51.047Z,17.50
2023-08-22T22:44:17.674Z,17.40
2023-08-22T22:46:44.409Z,17.40
2023-08-22T22:49:11.136Z,17.30
2023-08-22T22:51:38.936Z,17.30
2023-08-22T22:54:05.924Z,17.30
2023-08-22T22:56:32.672Z,17.20
2023-08-22T22:58:59.474Z,17.20
2023-08-22T23:01:29.324Z,17.20
2023-08-22T23:03:56.171Z,17.20
2023-08-22T23:06:22.795Z,17.20
2023-08-22T23:08:49.392Z,17.20
2023-08-22T23:11:30.070Z,17.20
2023-08-22T23:14:03.070Z,17.10
2023-08-22T23:16:29.764Z,17.10
2023-08-22T23:18:56.416Z,17.00
2023-08-22T23:21:23.036Z,17.00
2023-08-22T23:23:49.707Z,16.90
2023-08-22T23:26:16.358Z,16.90
2023-08-22T23:28:43.037Z,16.90
2023-08-22T23:31:09.692Z,16.90
2023-08-22T23:33:36.354Z,16.90
2023-08-22T23:36:03.181Z,16.90
2023-08-22T23:38:29.875Z,16.80
2023-08-22T23:40:56.434Z,16.90
2023-08-22T23:43:23.158Z,16.80
2023-08-22T23:45:51.284Z,16.80
2023-08-22T23:48:18.027Z,16.70
2023-08-22T23:50:44.636Z,16.70
2023-08-22T23:53:11.340Z,16.70
2023-08-22T23:55:37.974Z,16.70
2023-08-22T23:58:04.732Z,16.70
